Time;durP1;ratioP1;P1;durP2;ratioP2;P2;SDS_P1;SDS_P2;PMS_P1;PMS_P2;Temp;Humidity;BMP_temperature;BMP_pressure;BME280_temperature;BME280_humidity;BME280_pressure;Samples;Min_cycle;Max_cycle;Signal;HPM_P1;HPM_P2
2023/06/05 00:02:04;;;;;;;;;;;;;;;8.69;59.03;102095.31;107029;1260;61263;-91
2023/06/05 00:04:39;;;;;;;;;;;;;;;8.67;59.13;102095.20;106943;1261;123879;-91
2023/06/05 00:07:06;;;;;;;;;;;;;;;8.65;59.27;102094.56;107098;1260;65699;-91
2023/06/05 00:09:34;;;;;;;;;;;;;;;8.64;59.43;102099.34;107192;1261;123797;-91
2023/06/05 00:12:03;;;;;;;;;;;;;;;8.60;59.56;102096.91;107046;1261;60685;-91
2023/06/05 00:14:30;;;;;;;;;;;;;;;8.59;59.61;102097.71;106979;1261;124015;-90
2023/06/05 00:16:58;;;;;;;;;;;;;;;8.58;59.87;102097.81;106869;1260;74465;-91
2023/06/05 00:19:43;;;;;;;;;;;;;;;8.57;60.00;102097.59;106975;1261;67082;-92
2023/06/05 00:22:15;;;;;;;;;;;;;;;8.55;60.10;102098.72;106676;1262;124073;-90
2023/06/05 00:24:54;;;;;;;;;;;;;;;8.53;60.24;102100.56;107037;1262;60397;-91
2023/06/05 00:27:30;;;;;;;;;;;;;;;8.51;60.27;102097.46;107046;1262;123968;-90
2023/06/05 00:29:57;;;;;;;;;;;;;;;8.49;60.25;102094.52;106961;1260;75084;-90
2023/06/05 00:32:30;;;;;;;;;;;;;;;8.46;60.41;102098.76;107180;1262;65579;-90
2023/06/05 00:34:56;;;;;;;;;;;;;;;8.45;60.55;102101.48;107283;1261;71098;-91
2023/06/05 00:37:27;;;;;;;;;;;;;;;8.43;60.64;102100.47;107045;1262;60075;-91
2023/06/05 00:40:03;;;;;;;;;;;;;;;8.39;60.53;102100.45;106914;1260;123831;-91
2023/06/05 00:42:59;;;;;;;;;;;;;;;8.36;60.76;102096.45;106835;1262;74724;-90
2023/06/05 00:45:39;;;;;;;;;;;;;;;8.33;60.71;102096.28;106709;1264;123885;-91
2023/06/05 00:48:17;;;;;;;;;;;;;;;8.29;60.90;102097.27;106868;1261;72835;-91
2023/06/05 00:50:44;;;;;;;;;;;;;;;8.27;60.94;102100.98;106879;1260;124466;-90
2023/06/05 00:53:29;;;;;;;;;;;;;;;8.25;61.09;102101.05;107097;1262;59254;-90
2023/06/05 00:56:02;;;;;;;;;;;;;;;8.22;61.10;102102.83;107015;1262;73299;-93
2023/06/05 00:58:34;;;;;;;;;;;;;;;8.21;61.18;102098.20;106749;1260;124686;-92
2023/06/05 01:01:07;;;;;;;;;;;;;;;8.18;61.27;102099.95;106996;1261;72959;-90
2023/06/05 01:03:36;;;;;;;;;;;;;;;8.16;61.37;102099.84;106598;1267;124348;-91
2023/06/05 01:06:11;;;;;;;;;;;;;;;8.13;61.51;102097.42;106807;1262;60927;-92
2023/06/05 01:08:39;;;;;;;;;;;;;;;8.12;61.59;102101.92;106714;1260;123981;-90
2023/06/05 01:11:16;;;;;;;;;;;;;;;8.11;61.68;102101.48;106849;1261;65794;-90
2023/06/05 01:13:44;;;;;;;;;;;;;;;8.09;61.79;102099.45;107043;1261;72840;-91
2023/06/05 01:16:12;;;;;;;;;;;;;;;8.06;61.87;102103.67;107050;1261;124527;-91
2023/06/05 01:19:02;;;;;;;;;;;;;;;8.04;62.00;102106.88;106828;1260;60858;-91
2023/06/05 01:21:31;;;;;;;;;;;;;;;8.01;62.02;102103.89;106756;1261;123806;-91
2023/06/05 01:24:06;;;;;;;;;;;;;;;7.97;62.14;102106.13;106668;1261;65928;-92
2023/06/05 01:26:40;;;;;;;;;;;;;;;7.95;62.27;102103.72;106546;1264;124211;-90
2023/06/05 01:29:08;;;;;;;;;;;;;;;7.92;62.20;102102.19;106762;1266;61727;-92
2023/06/05 01:31:44;;;;;;;;;;;;;;;7.90;62.29;102101.20;106755;1266;60106;-91
2023/06/05 01:37:18;;;;;;;;;;;;;;;7.86;62.49;102100.79;106795;1262;67272;-90
2023/06/05 01:39:59;;;;;;;;;;;;;;;7.84;62.70;102103.08;106749;1264;124315;-90
2023/06/05 01:42:34;;;;;;;;;;;;;;;7.82;62.69;102102.40;106690;1261;60062;-90
2023/06/05 01:45:07;;;;;;;;;;;;;;;7.79;62.86;102100.73;106800;1261;124529;-90
2023/06/05 01:47:37;;;;;;;;;;;;;;;7.77;62.89;102097.46;107000;1260;74401;-90
2023/06/05 01:50:07;;;;;;;;;;;;;;;7.74;62.96;102095.20;106777;1261;67077;-90
2023/06/05 01:52:35;;;;;;;;;;;;;;;7.72;62.95;102096.67;106737;1264;124587;-90
2023/06/05 01:55:14;;;;;;;;;;;;;;;7.71;62.95;102095.34;106855;1261;61146;-90
2023/06/05 01:57:41;;;;;;;;;;;;;;;7.69;63.13;102090.67;106650;1262;123995;-90
2023/06/05 02:00:20;;;;;;;;;;;;;;;7.67;63.09;102091.95;106865;1264;73458;-91
2023/06/05 02:02:47;;;;;;;;;;;;;;;7.65;63.15;102092.05;106777;1261;124181;-91
2023/06/05 02:05:20;;;;;;;;;;;;;;;7.64;63.26;102091.09;106969;1260;72863;-91
2023/06/05 02:07:53;;;;;;;;;;;;;;;7.64;63.39;102091.79;107072;1264;62069;-91
2023/06/05 02:10:19;;;;;;;;;;;;;;;7.64;63.46;102089.89;106567;1262;124243;-90
2023/06/05 02:13:08;;;;;;;;;;;;;;;7.64;63.47;102090.44;106653;1260;73152;-91
2023/06/05 02:15:56;;;;;;;;;;;;;;;7.65;63.62;102089.91;106665;1262;124801;-91
2023/06/05 02:18:25;;;;;;;;;;;;;;;7.66;63.60;102087.91;106743;1262;71927;-90
2023/06/05 02:21:04;;;;;;;;;;;;;;;7.68;63.88;102084.38;106641;1262;125109;-91
2023/06/05 02:23:45;;;;;;;;;;;;;;;7.72;63.86;102080.37;106781;1262;61447;-91
2023/06/05 02:26:11;;;;;;;;;;;;;;;7.75;63.81;102079.88;106803;1260;74708;-91
2023/06/05 02:28:44;;;;;;;;;;;;;;;7.80;63.92;102085.04;106789;1261;124809;-91
2023/06/05 02:31:15;;;;;;;;;;;;;;;7.85;63.87;102085.29;106584;1265;72297;-91
2023/06/05 02:34:00;;;;;;;;;;;;;;;7.90;63.82;102084.75;106742;1263;60602;-91
2023/06/05 02:36:26;;;;;;;;;;;;;;;7.97;63.99;102082.00;106698;1262;60418;-92
2023/06/05 02:38:59;;;;;;;;;;;;;;;8.04;63.96;102081.84;106847;1260;61758;-93
2023/06/05 02:41:26;;;;;;;;;;;;;;;8.12;63.88;102080.73;107110;1261;65889;-91
2023/06/05 02:43:56;;;;;;;;;;;;;;;8.19;63.82;102077.78;107359;1265;72446;-89
2023/06/05 02:46:28;;;;;;;;;;;;;;;8.25;63.79;102075.19;106927;1262;124897;-90
2023/06/05 02:49:03;;;;;;;;;;;;;;;8.32;63.80;102075.75;106766;1265;60904;-90
2023/06/05 02:51:29;;;;;;;;;;;;;;;8.39;63.84;102070.53;106833;1261;124225;-91
2023/06/05 02:53:55;;;;;;;;;;;;;;;8.46;63.76;102069.21;106939;1262;61365;-91
2023/06/05 02:56:26;;;;;;;;;;;;;;;8.55;63.69;102064.60;106766;1264;60071;-91
2023/06/05 02:59:05;;;;;;;;;;;;;;;8.65;63.57;102069.52;106596;1261;123866;-91
2023/06/05 03:01:34;;;;;;;;;;;;;;;8.73;63.45;102070.46;106788;1261;59947;-92
2023/06/05 03:04:07;;;;;;;;;;;;;;;8.82;63.32;102073.73;106719;1260;124206;-92
2023/06/05 03:06:35;;;;;;;;;;;;;;;8.90;63.20;102068.38;106988;1261;65857;-93
2023/06/05 03:09:10;;;;;;;;;;;;;;;8.97;63.01;102066.64;107064;1261;124167;-92
2023/06/05 03:11:42;;;;;;;;;;;;;;;9.04;63.02;102068.27;107299;1260;60644;-91
2023/06/05 03:14:09;;;;;;;;;;;;;;;9.11;62.76;102071.45;107115;1263;61253;-91
2023/06/05 03:16:58;;;;;;;;;;;;;;;9.19;62.88;102070.26;106562;1260;124345;-91
2023/06/05 03:19:30;;;;;;;;;;;;;;;9.34;62.80;102076.44;106854;1260;65721;-91
2023/06/05 03:22:05;;;;;;;;;;;;;;;9.47;62.70;102072.07;106982;1262;124235;-92
2023/06/05 03:24:32;;;;;;;;;;;;;;;9.95;63.71;102069.15;106975;1265;59409;-91
2023/06/05 03:27:00;;;;;;;;;;;;;;;11.31;64.19;102061.30;106900;1260;124398;-92
2023/06/05 03:29:28;;;;;;;;;;;;;;;12.92;63.57;102060.66;107102;1264;74603;-91
2023/06/05 03:32:00;;;;;;;;;;;;;;;14.20;61.00;102058.11;106829;1260;67075;-91
2023/06/05 03:34:36;;;;;;;;;;;;;;;14.19;58.24;102058.83;106771;1264;124731;-90
2023/06/05 03:37:09;;;;;;;;;;;;;;;13.79;57.25;102064.77;106711;1264;61244;-89
2023/06/05 03:39:35;;;;;;;;;;;;;;;13.49;57.00;102067.30;106883;1262;124389;-81
2023/06/05 03:42:14;;;;;;;;;;;;;;;13.37;56.83;102069.00;107005;1260;61133;-90
2023/06/05 03:44:42;;;;;;;;;;;;;;;13.41;56.70;102064.91;106620;1265;124529;-90
2023/06/05 03:47:15;;;;;;;;;;;;;;;13.75;56.69;102062.35;106995;1260;73335;-90
2023/06/05 03:49:45;;;;;;;;;;;;;;;14.74;57.19;102064.15;106820;1260;61373;-91
2023/06/05 03:52:23;;;;;;;;;;;;;;;16.78;56.88;102059.45;106972;1261;124195;-92
2023/06/05 03:54:55;;;;;;;;;;;;;;;19.13;55.04;102052.66;107124;1264;73325;-91
2023/06/05 03:57:24;;;;;;;;;;;;;;;21.15;52.89;102054.89;106891;1260;125309;-90
2023/06/05 04:00:08;;;;;;;;;;;;;;;23.00;50.69;102052.47;107138;1261;72726;-91
2023/06/05 04:02:36;;;;;;;;;;;;;;;24.83;48.11;102054.74;106915;1260;61248;-91
2023/06/05 04:05:12;;;;;;;;;;;;;;;26.21;45.89;102051.25;107094;1260;61537;-89
2023/06/05 04:07:44;;;;;;;;;;;;;;;27.51;43.66;102054.89;106962;1260;74796;-89
2023/06/05 04:10:12;;;;;;;;;;;;;;;28.58;41.83;102054.39;106750;1260;124437;-92
2023/06/05 04:12:40;;;;;;;;;;;;;;;29.60;39.96;102056.08;107003;1266;73232;-92
2023/06/05 04:15:06;;;;;;;;;;;;;;;30.44;38.49;102056.22;107073;1261;124821;-91
2023/06/05 04:17:41;;;;;;;;;;;;;;;31.25;37.08;102056.49;107037;1267;61097;-91
2023/06/05 04:20:13;;;;;;;;;;;;;;;32.03;35.52;102056.45;107244;1261;65038;-89
2023/06/05 04:22:42;;;;;;;;;;;;;;;32.73;34.10;102056.75;106882;1265;124583;-88
2023/06/05 04:25:10;;;;;;;;;;;;;;;33.39;33.00;102052.61;106965;1260;64697;-88
2023/06/05 04:27:40;;;;;;;;;;;;;;;33.95;31.89;102052.88;107254;1260;124872;-87
2023/06/05 04:30:08;;;;;;;;;;;;;;;34.39;30.69;102049.42;107003;1263;61306;-86
2023/06/05 04:32:38;;;;;;;;;;;;;;;34.90;29.97;102049.88;107100;1264;66421;-91
2023/06/05 04:35:09;;;;;;;;;;;;;;;35.64;29.16;102052.50;107303;1260;59397;-90
2023/06/05 04:37:53;;;;;;;;;;;;;;;36.32;28.02;102049.84;107143;1261;71877;-90
2023/06/05 04:40:20;;;;;;;;;;;;;;;36.49;27.21;102048.73;107071;1261;124182;-91
2023/06/05 04:42:46;;;;;;;;;;;;;;;36.74;26.35;102048.09;107130;1261;61014;-87
2023/06/05 04:45:38;;;;;;;;;;;;;;;37.05;25.71;102044.73;107206;1260;125211;-90
2023/06/05 04:48:04;;;;;;;;;;;;;;;37.71;25.41;102044.88;107322;1261;62246;-88
2023/06/05 04:50:35;;;;;;;;;;;;;;;38.30;24.73;102047.70;107100;1260;60591;-92
2023/06/05 04:53:10;;;;;;;;;;;;;;;38.95;23.95;102042.44;107095;1260;124143;-87
2023/06/05 04:55:36;;;;;;;;;;;;;;;39.44;23.56;102040.38;106915;1260;61358;-89
2023/06/05 04:58:04;;;;;;;;;;;;;;;39.76;23.02;102043.42;107035;1261;124159;-92
2023/06/05 05:00:32;;;;;;;;;;;;;;;40.09;22.56;102045.58;107084;1260;61737;-89
2023/06/05 05:02:59;;;;;;;;;;;;;;;40.50;22.02;102043.43;107181;1260;124418;-89
2023/06/05 05:05:49;;;;;;;;;;;;;;;40.80;21.52;102047.34;106912;1260;61263;-89
2023/06/05 05:08:16;;;;;;;;;;;;;;;40.96;20.91;102050.48;106973;1260;61362;-88
2023/06/05 05:10:44;;;;;;;;;;;;;;;41.04;20.62;102050.71;107007;1261;124678;-88
2023/06/05 05:13:13;;;;;;;;;;;;;;;41.14;20.33;102049.65;107383;1261;61087;-88
2023/06/05 05:15:39;;;;;;;;;;;;;;;41.39;20.24;102046.33;107174;1260;124696;-87
2023/06/05 05:18:06;;;;;;;;;;;;;;;41.59;19.84;102044.59;107223;1264;59947;-85
2023/06/05 05:20:34;;;;;;;;;;;;;;;41.72;19.73;102047.89;107238;1261;61049;-86
2023/06/05 05:23:16;;;;;;;;;;;;;;;41.98;19.31;102049.70;107257;1261;123994;-85
2023/06/05 05:25:49;;;;;;;;;;;;;;;42.18;19.01;102051.65;107044;1263;59967;-86
2023/06/05 05:28:22;;;;;;;;;;;;;;;42.46;18.72;102055.55;107047;1265;124478;-84
2023/06/05 05:30:48;;;;;;;;;;;;;;;42.75;18.38;102049.61;107515;1265;59288;-86
2023/06/05 05:33:17;;;;;;;;;;;;;;;43.04;18.10;102052.48;107104;1263;124260;-88
2023/06/05 05:35:46;;;;;;;;;;;;;;;43.05;17.74;102054.02;107041;1264;64851;-89
2023/06/05 05:38:12;;;;;;;;;;;;;;;42.41;17.39;102051.90;107446;1264;59972;-87
2023/06/05 05:40:39;;;;;;;;;;;;;;;40.26;17.11;102052.49;107154;1260;124516;-85
2023/06/05 05:43:05;;;;;;;;;;;;;;;37.49;17.73;102054.08;107462;1260;60983;-85
2023/06/05 05:45:32;;;;;;;;;;;;;;;34.71;18.80;102053.33;107428;1260;124310;-85
2023/06/05 05:47:58;;;;;;;;;;;;;;;32.21;20.06;102057.19;107661;1261;59760;-85
2023/06/05 05:50:24;;;;;;;;;;;;;;;30.27;21.37;102057.47;107386;1260;59627;-85
2023/06/05 05:52:53;;;;;;;;;;;;;;;28.54;22.54;102063.69;107372;1260;124551;-86
2023/06/05 05:55:21;;;;;;;;;;;;;;;27.09;23.77;102063.84;107555;1261;59439;-85
2023/06/05 05:57:55;;;;;;;;;;;;;;;25.83;24.87;102058.08;108297;1260;125721;-85
2023/06/05 06:00:22;;;;;;;;;;;;;;;24.85;25.96;102062.63;108712;1260;74433;-85
2023/06/05 06:02:48;;;;;;;;;;;;;;;24.12;27.10;102064.55;108589;1260;124440;-85
2023/06/05 06:05:14;;;;;;;;;;;;;;;23.54;28.12;102064.68;108736;1260;59163;-79
2023/06/05 06:07:42;;;;;;;;;;;;;;;23.08;28.79;102064.63;108582;1260;69849;-80
2023/06/05 06:10:09;;;;;;;;;;;;;;;22.68;29.39;102064.47;108444;1260;124998;-80
2023/06/05 06:12:36;;;;;;;;;;;;;;;22.20;30.16;102064.96;108574;1260;73279;-80
2023/06/05 06:15:03;;;;;;;;;;;;;;;21.68;30.87;102068.05;108615;1260;124664;-80
2023/06/05 06:17:30;;;;;;;;;;;;;;;21.19;31.62;102071.36;108563;1263;71545;-80
2023/06/05 06:19:57;;;;;;;;;;;;;;;20.67;32.61;102076.36;108632;1261;59259;-80
2023/06/05 06:22:23;;;;;;;;;;;;;;;20.23;33.50;102080.21;108453;1260;125100;-80
2023/06/05 06:24:50;;;;;;;;;;;;;;;19.94;34.25;102082.51;108708;1260;59171;-80
2023/06/05 06:27:17;;;;;;;;;;;;;;;19.73;34.77;102081.80;108664;1260;124214;-80
2023/06/05 06:29:47;;;;;;;;;;;;;;;19.62;35.19;102080.27;108608;1260;71167;-80
2023/06/05 06:32:13;;;;;;;;;;;;;;;19.45;35.34;102079.21;108478;1264;61107;-80
2023/06/05 06:34:42;;;;;;;;;;;;;;;19.26;35.54;102082.76;108471;1261;124372;-80
2023/06/05 06:37:09;;;;;;;;;;;;;;;19.11;35.79;102081.52;108587;1260;73166;-80
2023/06/05 06:39:35;;;;;;;;;;;;;;;19.03;35.88;102083.58;108645;1260;124129;-80
2023/06/05 06:42:01;;;;;;;;;;;;;;;18.95;36.26;102083.30;108581;1260;59452;-80
2023/06/05 06:44:28;;;;;;;;;;;;;;;18.93;36.59;102086.84;108701;1260;59166;-79
2023/06/05 06:46:54;;;;;;;;;;;;;;;18.92;36.72;102084.16;108413;1260;124336;-80
2023/06/05 06:49:20;;;;;;;;;;;;;;;18.92;36.92;102085.77;108463;1260;59305;-79
2023/06/05 06:51:47;;;;;;;;;;;;;;;18.93;36.93;102089.70;108457;1260;124569;-80
2023/06/05 06:54:13;;;;;;;;;;;;;;;18.92;36.78;102085.23;108691;1260;59361;-80
2023/06/05 06:56:39;;;;;;;;;;;;;;;18.87;36.71;102084.64;108528;1260;124465;-80
2023/06/05 06:59:13;;;;;;;;;;;;;;;18.85;36.83;102084.45;108628;1260;59155;-79
2023/06/05 07:01:43;;;;;;;;;;;;;;;18.89;36.47;102084.48;108476;1266;73752;-80
2023/06/05 07:04:10;;;;;;;;;;;;;;;18.90;36.59;102084.14;108267;1260;125012;-80
2023/06/05 07:06:36;;;;;;;;;;;;;;;18.92;36.70;102087.19;108619;1260;72642;-79
2023/06/05 07:09:03;;;;;;;;;;;;;;;18.95;36.73;102083.84;108439;1261;125518;-79
2023/06/05 07:11:29;;;;;;;;;;;;;;;18.99;36.83;102081.76;108512;1260;59266;-79
2023/06/05 07:13:56;;;;;;;;;;;;;;;19.00;36.60;102083.18;108643;1260;59051;-79
2023/06/05 07:16:22;;;;;;;;;;;;;;;18.95;36.40;102085.44;108550;1260;124363;-79
2023/06/05 07:18:49;;;;;;;;;;;;;;;18.90;36.31;102088.23;108659;1260;59305;-79
2023/06/05 07:21:15;;;;;;;;;;;;;;;18.91;36.26;102087.17;108548;1260;124417;-80
2023/06/05 07:23:42;;;;;;;;;;;;;;;18.91;35.91;102088.60;108700;1260;59005;-79
2023/06/05 07:26:08;;;;;;;;;;;;;;;18.89;35.82;102089.47;108679;1260;59078;-79
2023/06/05 07:28:34;;;;;;;;;;;;;;;18.87;35.69;102092.28;108454;1263;124975;-79
2023/06/05 07:31:33;;;;;;;;;;;;;;;18.88;35.50;102088.38;108626;1260;59122;-80
2023/06/05 07:34:36;;;;;;;;;;;;;;;18.86;35.38;102087.47;108426;1260;125379;-81
2023/06/05 07:37:03;;;;;;;;;;;;;;;18.89;35.51;102089.98;108609;1261;59136;-81
2023/06/05 07:39:29;;;;;;;;;;;;;;;18.89;35.40;102088.04;108504;1260;124730;-79
2023/06/05 07:41:55;;;;;;;;;;;;;;;18.90;35.39;102084.14;108655;1263;59206;-79
2023/06/05 07:44:22;;;;;;;;;;;;;;;18.93;35.42;102085.06;108687;1260;59162;-79
2023/06/05 07:47:10;;;;;;;;;;;;;;;18.92;35.50;102085.95;108601;1261;124039;-79
2023/06/05 07:49:36;;;;;;;;;;;;;;;18.95;35.75;102087.21;108674;1260;59940;-79
2023/06/05 07:52:02;;;;;;;;;;;;;;;18.94;35.31;102080.27;108580;1260;124928;-80
2023/06/05 07:54:31;;;;;;;;;;;;;;;18.94;35.64;102085.96;108657;1260;59178;-79
2023/06/05 07:56:58;;;;;;;;;;;;;;;18.96;35.79;102080.66;108418;1260;125035;-79
2023/06/05 07:59:27;;;;;;;;;;;;;;;18.96;35.08;102080.13;108561;1260;59079;-80
2023/06/05 08:01:55;;;;;;;;;;;;;;;18.96;34.63;102081.00;108690;1260;59044;-79
2023/06/05 08:04:24;;;;;;;;;;;;;;;18.96;34.16;102080.12;108529;1260;124836;-79
2023/06/05 08:06:51;;;;;;;;;;;;;;;18.99;33.73;102085.49;108476;1260;65673;-79
2023/06/05 08:09:18;;;;;;;;;;;;;;;18.99;33.52;102087.98;108595;1260;125283;-79
2023/06/05 08:12:14;;;;;;;;;;;;;;;19.01;33.32;102085.52;108585;1263;59142;-79
2023/06/05 08:14:46;;;;;;;;;;;;;;;19.07;33.70;102087.54;108480;1260;125046;-84
2023/06/05 08:17:35;;;;;;;;;;;;;;;19.07;34.00;102090.39;108628;1260;73785;-86
2023/06/05 08:20:05;;;;;;;;;;;;;;;19.02;33.89;102091.39;108488;1261;66491;-87
2023/06/05 08:22:31;;;;;;;;;;;;;;;18.99;33.87;102088.52;108507;1260;125096;-80
2023/06/05 08:24:59;;;;;;;;;;;;;;;18.94;33.88;102088.45;108445;1260;59339;-80
2023/06/05 08:27:25;;;;;;;;;;;;;;;18.92;33.91;102086.82;108505;1260;124319;-80
2023/06/05 08:29:52;;;;;;;;;;;;;;;18.89;33.73;102088.40;108695;1260;59277;-80
2023/06/05 08:32:20;;;;;;;;;;;;;;;18.90;33.83;102084.13;108532;1260;59523;-80
2023/06/05 08:34:46;;;;;;;;;;;;;;;18.94;34.03;102084.90;108515;1260;124249;-80
2023/06/05 08:37:12;;;;;;;;;;;;;;;19.01;34.19;102084.80;108636;1260;59501;-79
2023/06/05 08:39:38;;;;;;;;;;;;;;;19.03;34.19;102076.46;108565;1260;124084;-79
2023/06/05 08:42:05;;;;;;;;;;;;;;;19.04;34.25;102076.30;108593;1260;59145;-79
2023/06/05 08:44:32;;;;;;;;;;;;;;;19.05;34.41;102074.00;108637;1260;59352;-79
2023/06/05 08:46:59;;;;;;;;;;;;;;;19.10;34.66;102076.02;108497;1261;124509;-79
2023/06/05 08:49:29;;;;;;;;;;;;;;;19.14;34.73;102077.66;108529;1260;59280;-80
2023/06/05 08:52:02;;;;;;;;;;;;;;;19.17;34.72;102083.02;108416;1260;124905;-80
2023/06/05 08:54:32;;;;;;;;;;;;;;;19.19;34.69;102079.84;108742;1260;73422;-80
2023/06/05 08:56:58;;;;;;;;;;;;;;;19.23;34.73;102078.98;108385;1264;124454;-80
2023/06/05 08:59:26;;;;;;;;;;;;;;;19.30;34.89;102078.35;108348;1260;241721;-79
2023/06/05 09:01:52;;;;;;;;;;;;;;;19.36;34.80;102078.77;108561;1265;59245;-80
2023/06/05 09:04:18;;;;;;;;;;;;;;;19.34;34.68;102074.30;108478;1260;124684;-80
2023/06/05 09:06:45;;;;;;;;;;;;;;;19.32;34.60;102074.29;108534;1260;59516;-80
2023/06/05 09:09:11;;;;;;;;;;;;;;;19.34;34.72;102079.63;108483;1260;124611;-87
2023/06/05 09:11:39;;;;;;;;;;;;;;;19.32;34.64;102073.39;108660;1261;59095;-86
2023/06/05 09:14:05;;;;;;;;;;;;;;;19.35;34.78;102077.69;108674;1261;59917;-87
2023/06/05 09:16:35;;;;;;;;;;;;;;;19.44;34.89;102078.48;108626;1260;125929;-86
2023/06/05 09:19:02;;;;;;;;;;;;;;;19.55;34.99;102083.21;108560;1261;75048;-86
2023/06/05 09:21:32;;;;;;;;;;;;;;;19.66;34.82;102085.80;108541;1260;124942;-87
2023/06/05 09:24:14;;;;;;;;;;;;;;;19.72;34.65;102080.35;108664;1260;71521;-87
2023/06/05 09:26:46;;;;;;;;;;;;;;;19.73;34.41;102084.64;108534;1260;59289;-86
2023/06/05 09:29:13;;;;;;;;;;;;;;;19.66;34.30;102083.13;108713;1260;60498;-87
2023/06/05 09:31:42;;;;;;;;;;;;;;;19.65;34.28;102080.64;108700;1260;59148;-87
2023/06/05 09:34:08;;;;;;;;;;;;;;;19.69;34.21;102077.29;108421;1260;125002;-87
2023/06/05 09:36:36;;;;;;;;;;;;;;;19.73;34.05;102074.85;108499;1261;59359;-87
2023/06/05 09:39:15;;;;;;;;;;;;;;;19.75;34.02;102072.75;108398;1260;124624;-86
2023/06/05 09:41:45;;;;;;;;;;;;;;;19.78;33.89;102064.92;108757;1259;59934;-86
2023/06/05 09:44:11;;;;;;;;;;;;;;;19.83;33.96;102067.64;108601;1260;74797;-87
2023/06/05 09:46:54;;;;;;;;;;;;;;;19.85;34.14;102067.83;108627;1260;124359;-88
2023/06/05 09:49:20;;;;;;;;;;;;;;;19.84;33.93;102061.95;108743;1260;72532;-81
2023/06/05 09:51:47;;;;;;;;;;;;;;;19.82;34.08;102064.44;108480;1260;124135;-81
2023/06/05 09:54:13;;;;;;;;;;;;;;;19.83;34.08;102064.79;108708;1261;59067;-81
2023/06/05 09:56:41;;;;;;;;;;;;;;;19.84;34.10;102058.02;108680;1261;59136;-80
2023/06/05 09:59:07;;;;;;;;;;;;;;;19.87;34.22;102054.11;108575;1260;124003;-80
2023/06/05 10:01:35;;;;;;;;;;;;;;;19.92;34.29;102049.90;108545;1260;73079;-81
2023/06/05 10:04:08;;;;;;;;;;;;;;;19.97;34.32;102052.95;108550;1260;124950;-81
2023/06/05 10:06:35;;;;;;;;;;;;;;;20.00;34.30;102049.41;108644;1260;60018;-80
2023/06/05 10:09:01;;;;;;;;;;;;;;;20.06;34.37;102047.49;108510;1260;124228;-80
2023/06/05 10:11:28;;;;;;;;;;;;;;;20.15;34.54;102046.83;108586;1260;67264;-80
2023/06/05 10:13:54;;;;;;;;;;;;;;;20.24;34.70;102047.96;108610;1260;59200;-80
2023/06/05 10:16:21;;;;;;;;;;;;;;;20.27;34.80;102045.66;108597;1262;124131;-80
2023/06/05 10:18:47;;;;;;;;;;;;;;;20.28;34.94;102045.14;108674;1260;59382;-80
2023/06/05 10:21:17;;;;;;;;;;;;;;;20.28;35.02;102045.13;108604;1260;125169;-80
2023/06/05 10:23:44;;;;;;;;;;;;;;;20.26;35.06;102042.63;108757;1260;67004;-80
2023/06/05 10:26:14;;;;;;;;;;;;;;;20.25;34.99;102040.66;108576;1260;73144;-79
2023/06/05 10:28:43;;;;;;;;;;;;;;;20.28;35.02;102040.85;108452;1260;125073;-80
2023/06/05 10:31:22;;;;;;;;;;;;;;;20.33;35.37;102042.84;108720;1260;59936;-80
2023/06/05 10:33:58;;;;;;;;;;;;;;;20.34;35.59;102032.51;108455;1265;125031;-80
2023/06/05 10:36:28;;;;;;;;;;;;;;;20.33;35.71;102031.08;108735;1260;67565;-81
2023/06/05 10:38:55;;;;;;;;;;;;;;;20.36;35.87;102031.27;108466;1262;125516;-80
2023/06/05 10:41:21;;;;;;;;;;;;;;;20.31;35.94;102034.09;108610;1260;59349;-80
2023/06/05 10:43:48;;;;;;;;;;;;;;;20.27;36.16;102033.19;108499;1260;59153;-87
2023/06/05 10:46:27;;;;;;;;;;;;;;;20.26;36.18;102035.84;108309;1260;124266;-87
2023/06/05 10:49:12;;;;;;;;;;;;;;;20.25;36.36;102033.52;108614;1261;67147;-88
2023/06/05 10:51:43;;;;;;;;;;;;;;;20.28;36.57;102031.23;108547;1260;124367;-87
2023/06/05 10:54:10;;;;;;;;;;;;;;;20.34;36.46;102026.27;108681;1260;59351;-87
2023/06/05 10:56:53;;;;;;;;;;;;;;;20.41;36.60;102024.33;108560;1260;59355;-88
2023/06/05 10:59:22;;;;;;;;;;;;;;;20.49;36.50;102024.91;108723;1262;75067;-88
2023/06/05 11:02:16;;;;;;;;;;;;;;;20.55;36.60;102022.25;108584;1260;65590;-87
2023/06/05 11:04:43;;;;;;;;;;;;;;;20.58;36.40;102023.34;108629;1260;124662;-88
2023/06/05 11:07:18;;;;;;;;;;;;;;;20.52;36.31;102020.11;108701;1260;59355;-87
2023/06/05 11:10:04;;;;;;;;;;;;;;;20.53;36.48;102014.23;108629;1260;124295;-87
2023/06/05 11:12:40;;;;;;;;;;;;;;;20.60;36.50;102014.80;108703;1260;72447;-87
2023/06/05 11:15:07;;;;;;;;;;;;;;;20.67;36.40;102014.85;108578;1260;124362;-87
2023/06/05 11:17:40;;;;;;;;;;;;;;;20.75;36.27;102013.80;108676;1260;73187;-88
2023/06/05 11:20:10;;;;;;;;;;;;;;;20.82;36.05;102015.77;108729;1260;60040;-88
2023/06/05 11:22:52;;;;;;;;;;;;;;;20.86;35.86;102010.60;108547;1260;124970;-80
2023/06/05 11:25:19;;;;;;;;;;;;;;;20.88;35.95;102002.60;108662;1260;73163;-81
2023/06/05 11:27:46;;;;;;;;;;;;;;;20.96;36.19;102006.17;108570;1260;124731;-81
2023/06/05 11:30:13;;;;;;;;;;;;;;;21.04;35.89;102005.12;108583;1260;71351;-81
2023/06/05 11:32:39;;;;;;;;;;;;;;;21.09;35.92;102007.27;108698;1260;59081;-81
2023/06/05 11:35:05;;;;;;;;;;;;;;;21.10;35.79;102006.38;108643;1260;125148;-81
2023/06/05 11:37:35;;;;;;;;;;;;;;;21.10;35.77;102005.30;108590;1260;59219;-81
2023/06/05 11:40:04;;;;;;;;;;;;;;;21.11;35.58;102004.95;108618;1261;124423;-81
2023/06/05 11:42:31;;;;;;;;;;;;;;;21.06;35.44;102002.80;108561;1260;71398;-80
2023/06/05 11:44:57;;;;;;;;;;;;;;;21.06;35.73;101994.77;108556;1260;124772;-80
2023/06/05 11:47:24;;;;;;;;;;;;;;;21.12;35.75;101991.75;108612;1260;59357;-80
2023/06/05 11:49:51;;;;;;;;;;;;;;;21.20;35.60;101993.54;108671;1260;59086;-81
2023/06/05 11:52:18;;;;;;;;;;;;;;;21.22;35.35;102000.50;108614;1262;124349;-81
2023/06/05 11:54:53;;;;;;;;;;;;;;;21.16;35.19;101995.14;108711;1260;71398;-81
2023/06/05 11:57:27;;;;;;;;;;;;;;;21.09;35.18;101990.14;106978;1260;124959;-81
2023/06/05 11:59:53;;;;;;;;;;;;;;;21.12;35.48;101988.17;107186;1261;62146;-81
2023/06/05 12:02:21;;;;;;;;;;;;;;;21.24;35.58;101986.39;107445;1260;61385;-81
2023/06/05 12:04:48;;;;;;;;;;;;;;;21.34;35.39;101986.23;107262;1261;124079;-81
2023/06/05 12:07:14;;;;;;;;;;;;;;;21.35;34.96;101984.27;107151;1260;61120;-81
2023/06/05 12:09:44;;;;;;;;;;;;;;;21.33;34.92;101981.57;107510;1261;124149;-81
2023/06/05 12:12:10;;;;;;;;;;;;;;;21.38;34.92;101980.69;107502;1260;59832;-81
2023/06/05 12:14:36;;;;;;;;;;;;;;;21.43;34.86;101977.66;107485;1260;73136;-81
2023/06/05 12:17:10;;;;;;;;;;;;;;;21.43;34.72;101978.90;107305;1260;124154;-80
2023/06/05 12:19:36;;;;;;;;;;;;;;;21.37;34.39;101972.84;107351;1260;72848;-80
2023/06/05 12:22:04;;;;;;;;;;;;;;;21.31;34.28;101972.48;107228;1260;124609;-80
2023/06/05 12:24:31;;;;;;;;;;;;;;;21.27;34.31;101971.04;107278;1263;61372;-80
2023/06/05 12:27:01;;;;;;;;;;;;;;;21.28;34.29;101973.72;106909;1262;124596;-80
2023/06/05 12:29:29;;;;;;;;;;;;;;;21.31;34.24;101971.93;107220;1265;64598;-81
2023/06/05 12:31:56;;;;;;;;;;;;;;;21.34;34.14;101968.55;107250;1260;71902;-80
2023/06/05 12:34:38;;;;;;;;;;;;;;;21.27;33.95;101970.34;107077;1260;124113;-80
2023/06/05 12:37:08;;;;;;;;;;;;;;;21.20;34.09;101965.52;107169;1260;60418;-88
2023/06/05 12:39:35;;;;;;;;;;;;;;;21.18;34.02;101965.33;107377;1260;125053;-87
2023/06/05 12:42:01;;;;;;;;;;;;;;;21.20;33.96;101957.13;107702;1265;66988;-87
2023/06/05 12:44:28;;;;;;;;;;;;;;;21.21;33.98;101957.30;107552;1260;71407;-87
2023/06/05 12:46:54;;;;;;;;;;;;;;;21.21;33.85;101954.98;107520;1261;124605;-86